sensor_id;sensor_type;location;lat;lon;timestamp;P1;durP1;ratioP1;P2;durP2;ratioP2
13147;SDS011;6639;50.956;4.242;2023-04-09T00:02:16;36.50;;;32.70;;
13147;SDS011;6639;50.956;4.242;2023-04-09T00:04:43;39.78;;;34.63;;
13147;SDS011;6639;50.956;4.242;2023-04-09T00:07:10;37.30;;;33.22;;
13147;SDS011;6639;50.956;4.242;2023-04-09T00:09:37;40.92;;;34.63;;
13147;SDS011;6639;50.956;4.242;2023-04-09T00:12:04;39.65;;;35.45;;
13147;SDS011;6639;50.956;4.242;2023-04-09T00:14:31;40.05;;;35.00;;
13147;SDS011;6639;50.956;4.242;2023-04-09T00:16:58;33.70;;;30.05;;
13147;SDS011;6639;50.956;4.242;2023-04-09T00:19:26;38.20;;;33.25;;
13147;SDS011;6639;50.956;4.242;2023-04-09T00:21:53;41.10;;;36.65;;
13147;SDS011;6639;50.956;4.242;2023-04-09T00:24:20;41.28;;;36.78;;
13147;SDS011;6639;50.956;4.242;2023-04-09T00:26:47;41.20;;;35.70;;
13147;SDS011;6639;50.956;4.242;2023-04-09T00:29:14;38.55;;;34.45;;
13147;SDS011;6639;50.956;4.242;2023-04-09T00:31:41;40.38;;;36.13;;
13147;SDS011;6639;50.956;4.242;2023-04-09T00:34:08;39.13;;;34.90;;
13147;SDS011;6639;50.956;4.242;2023-04-09T00:36:37;34.40;;;30.88;;
13147;SDS011;6639;50.956;4.242;2023-04-09T00:39:03;38.08;;;34.03;;
13147;SDS011;6639;50.956;4.242;2023-04-09T00:41:30;38.17;;;34.05;;
13147;SDS011;6639;50.956;4.242;2023-04-09T00:43:57;32.63;;;29.17;;
13147;SDS011;6639;50.956;4.242;2023-04-09T00:46:24;29.60;;;26.38;;
13147;SDS011;6639;50.956;4.242;2023-04-09T00:48:51;33.40;;;29.85;;
13147;SDS011;6639;50.956;4.242;2023-04-09T00:51:18;34.83;;;31.10;;
13147;SDS011;6639;50.956;4.242;2023-04-09T00:53:47;32.78;;;29.33;;
13147;SDS011;6639;50.956;4.242;2023-04-09T00:56:14;32.67;;;29.27;;
13147;SDS011;6639;50.956;4.242;2023-04-09T00:58:42;32.72;;;27.77;;
13147;SDS011;6639;50.956;4.242;2023-04-09T01:01:10;30.15;;;27.10;;
13147;SDS011;6639;50.956;4.242;2023-04-09T01:03:36;33.20;;;28.73;;
13147;SDS011;6639;50.956;4.242;2023-04-09T01:06:05;32.45;;;28.05;;
13147;SDS011;6639;50.956;4.242;2023-04-09T01:08:37;29.23;;;25.60;;
13147;SDS011;6639;50.956;4.242;2023-04-09T01:11:27;23.90;;;21.50;;
13147;SDS011;6639;50.956;4.242;2023-04-09T01:14:04;23.05;;;20.77;;
13147;SDS011;6639;50.956;4.242;2023-04-09T01:16:37;21.98;;;19.67;;
13147;SDS011;6639;50.956;4.242;2023-04-09T01:22:05;22.00;;;19.80;;
13147;SDS011;6639;50.956;4.242;2023-04-09T01:24:41;23.98;;;21.58;;
13147;SDS011;6639;50.956;4.242;2023-04-09T01:27:27;24.10;;;21.67;;
13147;SDS011;6639;50.956;4.242;2023-04-09T01:30:04;26.27;;;23.48;;
13147;SDS011;6639;50.956;4.242;2023-04-09T01:32:34;25.98;;;23.48;;
13147;SDS011;6639;50.956;4.242;2023-04-09T01:35:04;27.85;;;24.88;;
13147;SDS011;6639;50.956;4.242;2023-04-09T01:37:33;30.25;;;27.13;;
13147;SDS011;6639;50.956;4.242;2023-04-09T01:40:01;27.90;;;25.00;;
13147;SDS011;6639;50.956;4.242;2023-04-09T01:42:29;30.58;;;27.23;;
13147;SDS011;6639;50.956;4.242;2023-04-09T01:44:57;26.20;;;23.42;;
13147;SDS011;6639;50.956;4.242;2023-04-09T01:47:26;26.17;;;23.38;;
13147;SDS011;6639;50.956;4.242;2023-04-09T01:49:54;24.98;;;22.38;;
13147;SDS011;6639;50.956;4.242;2023-04-09T01:52:29;25.77;;;23.05;;
13147;SDS011;6639;50.956;4.242;2023-04-09T01:54:56;25.42;;;22.77;;
13147;SDS011;6639;50.956;4.242;2023-04-09T01:57:23;24.92;;;22.55;;
13147;SDS011;6639;50.956;4.242;2023-04-09T01:59:50;25.20;;;22.23;;
13147;SDS011;6639;50.956;4.242;2023-04-09T02:02:17;24.40;;;21.98;;
13147;SDS011;6639;50.956;4.242;2023-04-09T02:04:51;25.63;;;22.83;;
13147;SDS011;6639;50.956;4.242;2023-04-09T02:07:22;27.67;;;24.05;;
13147;SDS011;6639;50.956;4.242;2023-04-09T02:09:55;25.70;;;23.10;;
13147;SDS011;6639;50.956;4.242;2023-04-09T02:12:24;24.02;;;21.48;;
13147;SDS011;6639;50.956;4.242;2023-04-09T02:14:52;25.60;;;22.98;;
13147;SDS011;6639;50.956;4.242;2023-04-09T02:17:20;24.05;;;21.65;;
13147;SDS011;6639;50.956;4.242;2023-04-09T02:19:47;24.42;;;21.92;;
13147;SDS011;6639;50.956;4.242;2023-04-09T02:22:16;23.35;;;21.02;;
13147;SDS011;6639;50.956;4.242;2023-04-09T02:24:44;22.85;;;20.60;;
13147;SDS011;6639;50.956;4.242;2023-04-09T02:27:12;23.67;;;21.20;;
13147;SDS011;6639;50.956;4.242;2023-04-09T02:29:39;25.25;;;22.70;;
13147;SDS011;6639;50.956;4.242;2023-04-09T02:32:06;25.55;;;22.67;;
13147;SDS011;6639;50.956;4.242;2023-04-09T02:34:33;24.33;;;21.73;;
13147;SDS011;6639;50.956;4.242;2023-04-09T02:37:00;24.95;;;22.33;;
13147;SDS011;6639;50.956;4.242;2023-04-09T02:39:29;23.20;;;20.80;;
13147;SDS011;6639;50.956;4.242;2023-04-09T02:41:56;23.98;;;21.58;;
13147;SDS011;6639;50.956;4.242;2023-04-09T02:44:23;24.88;;;22.27;;
13147;SDS011;6639;50.956;4.242;2023-04-09T02:46:50;25.00;;;21.38;;
13147;SDS011;6639;50.956;4.242;2023-04-09T02:49:17;22.27;;;20.08;;
13147;SDS011;6639;50.956;4.242;2023-04-09T02:51:44;21.95;;;19.65;;
13147;SDS011;6639;50.956;4.242;2023-04-09T02:54:11;23.88;;;21.48;;
13147;SDS011;6639;50.956;4.242;2023-04-09T02:56:39;22.52;;;20.23;;
13147;SDS011;6639;50.956;4.242;2023-04-09T02:59:06;23.98;;;21.45;;
13147;SDS011;6639;50.956;4.242;2023-04-09T03:01:33;21.80;;;19.65;;
13147;SDS011;6639;50.956;4.242;2023-04-09T03:04:00;21.95;;;19.75;;
13147;SDS011;6639;50.956;4.242;2023-04-09T03:06:27;21.08;;;18.90;;
13147;SDS011;6639;50.956;4.242;2023-04-09T03:08:54;22.15;;;19.90;;
13147;SDS011;6639;50.956;4.242;2023-04-09T03:11:21;23.20;;;20.70;;
13147;SDS011;6639;50.956;4.242;2023-04-09T03:13:50;21.95;;;19.63;;
13147;SDS011;6639;50.956;4.242;2023-04-09T03:16:17;24.90;;;20.08;;
13147;SDS011;6639;50.956;4.242;2023-04-09T03:18:44;21.92;;;19.63;;
13147;SDS011;6639;50.956;4.242;2023-04-09T03:21:11;21.70;;;19.45;;
13147;SDS011;6639;50.956;4.242;2023-04-09T03:23:38;22.55;;;19.77;;
13147;SDS011;6639;50.956;4.242;2023-04-09T03:26:05;20.08;;;18.15;;
13147;SDS011;6639;50.956;4.242;2023-04-09T03:28:32;20.85;;;18.63;;
13147;SDS011;6639;50.956;4.242;2023-04-09T03:31:00;24.08;;;21.38;;
13147;SDS011;6639;50.956;4.242;2023-04-09T03:33:27;24.05;;;21.65;;
13147;SDS011;6639;50.956;4.242;2023-04-09T03:35:54;23.45;;;21.15;;
13147;SDS011;6639;50.956;4.242;2023-04-09T03:38:27;27.40;;;23.45;;
13147;SDS011;6639;50.956;4.242;2023-04-09T03:40:54;24.60;;;21.90;;
13147;SDS011;6639;50.956;4.242;2023-04-09T03:43:21;22.83;;;20.38;;
13147;SDS011;6639;50.956;4.242;2023-04-09T03:45:51;20.33;;;18.33;;
13147;SDS011;6639;50.956;4.242;2023-04-09T03:48:20;19.92;;;17.83;;
13147;SDS011;6639;50.956;4.242;2023-04-09T03:50:47;20.20;;;18.27;;
13147;SDS011;6639;50.956;4.242;2023-04-09T03:53:14;21.63;;;19.52;;
13147;SDS011;6639;50.956;4.242;2023-04-09T03:55:41;21.88;;;19.55;;
13147;SDS011;6639;50.956;4.242;2023-04-09T03:58:09;21.50;;;19.27;;
13147;SDS011;6639;50.956;4.242;2023-04-09T04:00:36;20.85;;;18.73;;
13147;SDS011;6639;50.956;4.242;2023-04-09T04:03:03;22.75;;;20.42;;
13147;SDS011;6639;50.956;4.242;2023-04-09T04:05:31;21.58;;;19.38;;
13147;SDS011;6639;50.956;4.242;2023-04-09T04:07:58;18.98;;;17.02;;
13147;SDS011;6639;50.956;4.242;2023-04-09T04:10:25;19.38;;;17.38;;
13147;SDS011;6639;50.956;4.242;2023-04-09T04:12:53;20.75;;;17.50;;
13147;SDS011;6639;50.956;4.242;2023-04-09T04:15:20;21.70;;;19.42;;
13147;SDS011;6639;50.956;4.242;2023-04-09T04:17:47;22.15;;;19.02;;
13147;SDS011;6639;50.956;4.242;2023-04-09T04:20:14;20.40;;;18.27;;
13147;SDS011;6639;50.956;4.242;2023-04-09T04:22:42;19.88;;;17.77;;
13147;SDS011;6639;50.956;4.242;2023-04-09T04:25:09;19.92;;;17.40;;
13147;SDS011;6639;50.956;4.242;2023-04-09T04:27:36;21.40;;;18.73;;
13147;SDS011;6639;50.956;4.242;2023-04-09T04:30:07;20.90;;;18.70;;
13147;SDS011;6639;50.956;4.242;2023-04-09T04:32:34;20.65;;;18.48;;
13147;SDS011;6639;50.956;4.242;2023-04-09T04:35:02;22.38;;;19.90;;
13147;SDS011;6639;50.956;4.242;2023-04-09T04:37:32;27.25;;;22.55;;
13147;SDS011;6639;50.956;4.242;2023-04-09T04:40:01;24.83;;;21.88;;
13147;SDS011;6639;50.956;4.242;2023-04-09T04:42:29;25.63;;;22.02;;
13147;SDS011;6639;50.956;4.242;2023-04-09T04:44:56;32.83;;;26.90;;
13147;SDS011;6639;50.956;4.242;2023-04-09T04:47:23;25.52;;;22.50;;
13147;SDS011;6639;50.956;4.242;2023-04-09T04:49:50;22.67;;;20.25;;
13147;SDS011;6639;50.956;4.242;2023-04-09T04:52:17;22.63;;;19.92;;
13147;SDS011;6639;50.956;4.242;2023-04-09T04:54:44;25.08;;;20.88;;
13147;SDS011;6639;50.956;4.242;2023-04-09T04:57:12;24.38;;;21.77;;
13147;SDS011;6639;50.956;4.242;2023-04-09T04:59:39;24.70;;;22.13;;
13147;SDS011;6639;50.956;4.242;2023-04-09T05:02:06;25.88;;;23.15;;
13147;SDS011;6639;50.956;4.242;2023-04-09T05:04:33;27.63;;;24.05;;
13147;SDS011;6639;50.956;4.242;2023-04-09T05:07:01;26.52;;;22.75;;
13147;SDS011;6639;50.956;4.242;2023-04-09T05:09:28;25.48;;;22.73;;
13147;SDS011;6639;50.956;4.242;2023-04-09T05:11:55;28.30;;;23.42;;
13147;SDS011;6639;50.956;4.242;2023-04-09T05:14:23;24.50;;;21.83;;
13147;SDS011;6639;50.956;4.242;2023-04-09T05:16:50;24.77;;;21.33;;
13147;SDS011;6639;50.956;4.242;2023-04-09T05:19:17;24.08;;;20.83;;
13147;SDS011;6639;50.956;4.242;2023-04-09T05:21:44;22.20;;;19.25;;
13147;SDS011;6639;50.956;4.242;2023-04-09T05:24:11;20.35;;;18.27;;
13147;SDS011;6639;50.956;4.242;2023-04-09T05:26:38;20.70;;;18.60;;
13147;SDS011;6639;50.956;4.242;2023-04-09T05:29:05;21.52;;;18.55;;
13147;SDS011;6639;50.956;4.242;2023-04-09T05:31:34;19.85;;;17.75;;
13147;SDS011;6639;50.956;4.242;2023-04-09T05:34:01;18.88;;;16.88;;
13147;SDS011;6639;50.956;4.242;2023-04-09T05:36:28;19.23;;;17.02;;
13147;SDS011;6639;50.956;4.242;2023-04-09T05:38:57;20.00;;;17.83;;
13147;SDS011;6639;50.956;4.242;2023-04-09T05:41:24;19.75;;;17.75;;
13147;SDS011;6639;50.956;4.242;2023-04-09T05:43:51;21.38;;;18.42;;
13147;SDS011;6639;50.956;4.242;2023-04-09T05:46:19;20.80;;;18.52;;
13147;SDS011;6639;50.956;4.242;2023-04-09T05:48:47;21.90;;;19.60;;
13147;SDS011;6639;50.956;4.242;2023-04-09T05:51:14;19.77;;;17.48;;
13147;SDS011;6639;50.956;4.242;2023-04-09T05:53:41;20.55;;;18.38;;
13147;SDS011;6639;50.956;4.242;2023-04-09T05:56:12;19.67;;;17.30;;
13147;SDS011;6639;50.956;4.242;2023-04-09T05:58:40;21.65;;;19.30;;
13147;SDS011;6639;50.956;4.242;2023-04-09T06:01:07;22.92;;;20.20;;
13147;SDS011;6639;50.956;4.242;2023-04-09T06:03:35;22.83;;;20.48;;
13147;SDS011;6639;50.956;4.242;2023-04-09T06:06:06;23.30;;;20.77;;
13147;SDS011;6639;50.956;4.242;2023-04-09T06:08:34;24.67;;;22.20;;
13147;SDS011;6639;50.956;4.242;2023-04-09T06:11:01;23.92;;;21.52;;
13147;SDS011;6639;50.956;4.242;2023-04-09T06:13:31;20.80;;;18.70;;
13147;SDS011;6639;50.956;4.242;2023-04-09T06:16:02;23.50;;;21.05;;
13147;SDS011;6639;50.956;4.242;2023-04-09T06:18:29;26.15;;;23.40;;
13147;SDS011;6639;50.956;4.242;2023-04-09T06:21:00;27.02;;;24.13;;
13147;SDS011;6639;50.956;4.242;2023-04-09T06:23:30;28.20;;;25.25;;
13147;SDS011;6639;50.956;4.242;2023-04-09T06:25:58;27.35;;;24.35;;
13147;SDS011;6639;50.956;4.242;2023-04-09T06:28:27;28.83;;;25.30;;
13147;SDS011;6639;50.956;4.242;2023-04-09T06:30:55;32.05;;;25.67;;
13147;SDS011;6639;50.956;4.242;2023-04-09T06:33:22;31.52;;;28.20;;
13147;SDS011;6639;50.956;4.242;2023-04-09T06:35:50;32.13;;;28.77;;
13147;SDS011;6639;50.956;4.242;2023-04-09T06:38:17;32.30;;;28.95;;
13147;SDS011;6639;50.956;4.242;2023-04-09T06:40:45;32.08;;;28.67;;
13147;SDS011;6639;50.956;4.242;2023-04-09T06:43:12;31.45;;;28.05;;
13147;SDS011;6639;50.956;4.242;2023-04-09T06:45:40;31.45;;;28.15;;
13147;SDS011;6639;50.956;4.242;2023-04-09T06:48:07;32.15;;;28.80;;
13147;SDS011;6639;50.956;4.242;2023-04-09T06:50:34;33.00;;;29.58;;
13147;SDS011;6639;50.956;4.242;2023-04-09T06:53:05;31.65;;;28.45;;
13147;SDS011;6639;50.956;4.242;2023-04-09T06:55:32;34.80;;;30.30;;
13147;SDS011;6639;50.956;4.242;2023-04-09T06:58:00;33.22;;;29.83;;
13147;SDS011;6639;50.956;4.242;2023-04-09T07:00:27;32.40;;;29.17;;
13147;SDS011;6639;50.956;4.242;2023-04-09T07:02:54;34.63;;;31.13;;
13147;SDS011;6639;50.956;4.242;2023-04-09T07:05:21;34.53;;;31.00;;
13147;SDS011;6639;50.956;4.242;2023-04-09T07:07:49;34.10;;;30.63;;
13147;SDS011;6639;50.956;4.242;2023-04-09T07:10:16;34.08;;;30.58;;
13147;SDS011;6639;50.956;4.242;2023-04-09T07:12:44;34.33;;;31.05;;
13147;SDS011;6639;50.956;4.242;2023-04-09T07:15:13;32.92;;;29.58;;
13147;SDS011;6639;50.956;4.242;2023-04-09T07:17:40;34.88;;;31.33;;
13147;SDS011;6639;50.956;4.242;2023-04-09T07:20:08;36.53;;;32.88;;
13147;SDS011;6639;50.956;4.242;2023-04-09T07:22:35;37.08;;;33.38;;
13147;SDS011;6639;50.956;4.242;2023-04-09T07:25:03;38.35;;;34.45;;
13147;SDS011;6639;50.956;4.242;2023-04-09T07:27:30;37.75;;;33.88;;
13147;SDS011;6639;50.956;4.242;2023-04-09T07:29:57;37.47;;;33.67;;
13147;SDS011;6639;50.956;4.242;2023-04-09T07:32:26;39.92;;;35.83;;
13147;SDS011;6639;50.956;4.242;2023-04-09T07:34:53;37.35;;;33.65;;
13147;SDS011;6639;50.956;4.242;2023-04-09T07:37:23;37.90;;;34.15;;
13147;SDS011;6639;50.956;4.242;2023-04-09T07:39:51;37.85;;;34.15;;
13147;SDS011;6639;50.956;4.242;2023-04-09T07:42:19;38.42;;;34.60;;
13147;SDS011;6639;50.956;4.242;2023-04-09T07:44:47;38.28;;;34.30;;
13147;SDS011;6639;50.956;4.242;2023-04-09T07:47:14;37.35;;;33.65;;
13147;SDS011;6639;50.956;4.242;2023-04-09T07:49:42;38.78;;;34.83;;
13147;SDS011;6639;50.956;4.242;2023-04-09T07:52:10;38.78;;;34.63;;
13147;SDS011;6639;50.956;4.242;2023-04-09T07:54:37;38.20;;;34.22;;
13147;SDS011;6639;50.956;4.242;2023-04-09T07:57:04;36.90;;;33.30;;
13147;SDS011;6639;50.956;4.242;2023-04-09T07:59:31;38.20;;;34.55;;
13147;SDS011;6639;50.956;4.242;2023-04-09T08:02:00;37.05;;;33.45;;
13147;SDS011;6639;50.956;4.242;2023-04-09T08:04:27;38.33;;;34.45;;
13147;SDS011;6639;50.956;4.242;2023-04-09T08:06:56;38.55;;;34.75;;
13147;SDS011;6639;50.956;4.242;2023-04-09T08:09:23;37.10;;;33.58;;
13147;SDS011;6639;50.956;4.242;2023-04-09T08:11:50;38.63;;;34.95;;
13147;SDS011;6639;50.956;4.242;2023-04-09T08:14:17;38.10;;;34.28;;
13147;SDS011;6639;50.956;4.242;2023-04-09T08:16:46;37.88;;;34.28;;
13147;SDS011;6639;50.956;4.242;2023-04-09T08:19:15;38.55;;;34.72;;
13147;SDS011;6639;50.956;4.242;2023-04-09T08:21:44;37.38;;;33.78;;
13147;SDS011;6639;50.956;4.242;2023-04-09T08:24:26;38.42;;;34.50;;
13147;SDS011;6639;50.956;4.242;2023-04-09T08:26:53;38.78;;;35.17;;
13147;SDS011;6639;50.956;4.242;2023-04-09T08:29:20;36.75;;;33.15;;
13147;SDS011;6639;50.956;4.242;2023-04-09T08:31:47;36.40;;;33.00;;
13147;SDS011;6639;50.956;4.242;2023-04-09T08:34:14;38.22;;;34.60;;
13147;SDS011;6639;50.956;4.242;2023-04-09T08:36:45;37.00;;;33.50;;
13147;SDS011;6639;50.956;4.242;2023-04-09T08:39:14;38.13;;;34.42;;
13147;SDS011;6639;50.956;4.242;2023-04-09T08:41:44;38.70;;;34.53;;
13147;SDS011;6639;50.956;4.242;2023-04-09T08:44:12;38.47;;;34.90;;
13147;SDS011;6639;50.956;4.242;2023-04-09T08:46:39;38.45;;;34.88;;
13147;SDS011;6639;50.956;4.242;2023-04-09T08:49:07;38.53;;;34.88;;
13147;SDS011;6639;50.956;4.242;2023-04-09T08:51:34;37.15;;;33.67;;
13147;SDS011;6639;50.956;4.242;2023-04-09T08:54:04;35.17;;;31.80;;
13147;SDS011;6639;50.956;4.242;2023-04-09T08:56:31;38.25;;;34.65;;
13147;SDS011;6639;50.956;4.242;2023-04-09T08:59:00;37.65;;;34.15;;
13147;SDS011;6639;50.956;4.242;2023-04-09T09:01:27;37.90;;;34.22;;
13147;SDS011;6639;50.956;4.242;2023-04-09T09:03:57;37.53;;;34.13;;
13147;SDS011;6639;50.956;4.242;2023-04-09T09:06:25;38.30;;;34.70;;
13147;SDS011;6639;50.956;4.242;2023-04-09T09:09:04;35.63;;;32.42;;
13147;SDS011;6639;50.956;4.242;2023-04-09T09:11:32;36.58;;;33.22;;
13147;SDS011;6639;50.956;4.242;2023-04-09T09:14:02;37.15;;;33.85;;
13147;SDS011;6639;50.956;4.242;2023-04-09T09:16:32;36.40;;;33.00;;
13147;SDS011;6639;50.956;4.242;2023-04-09T09:19:04;36.38;;;32.97;;
13147;SDS011;6639;50.956;4.242;2023-04-09T09:21:31;36.00;;;32.70;;
13147;SDS011;6639;50.956;4.242;2023-04-09T09:23:58;35.78;;;32.33;;
13147;SDS011;6639;50.956;4.242;2023-04-09T09:26:26;37.08;;;33.58;;
13147;SDS011;6639;50.956;4.242;2023-04-09T09:28:54;33.15;;;29.92;;
13147;SDS011;6639;50.956;4.242;2023-04-09T09:31:24;34.42;;;31.10;;
13147;SDS011;6639;50.956;4.242;2023-04-09T09:33:51;34.30;;;30.90;;
13147;SDS011;6639;50.956;4.242;2023-04-09T09:39:01;34.85;;;31.55;;
13147;SDS011;6639;50.956;4.242;2023-04-09T09:41:34;35.88;;;32.38;;
13147;SDS011;6639;50.956;4.242;2023-04-09T09:44:01;37.08;;;33.55;;
13147;SDS011;6639;50.956;4.242;2023-04-09T09:46:30;34.67;;;31.58;;
13147;SDS011;6639;50.956;4.242;2023-04-09T09:49:00;33.65;;;30.48;;
13147;SDS011;6639;50.956;4.242;2023-04-09T09:51:27;34.10;;;30.73;;
13147;SDS011;6639;50.956;4.242;2023-04-09T09:53:57;34.42;;;31.23;;
13147;SDS011;6639;50.956;4.242;2023-04-09T09:56:28;31.77;;;28.77;;
13147;SDS011;6639;50.956;4.242;2023-04-09T09:59:01;33.95;;;30.65;;
13147;SDS011;6639;50.956;4.242;2023-04-09T10:01:48;32.65;;;29.42;;
13147;SDS011;6639;50.956;4.242;2023-04-09T10:04:26;30.88;;;27.98;;
13147;SDS011;6639;50.956;4.242;2023-04-09T10:06:56;30.65;;;27.75;;
13147;SDS011;6639;50.956;4.242;2023-04-09T10:09:25;31.77;;;28.77;;
13147;SDS011;6639;50.956;4.242;2023-04-09T10:11:53;34.13;;;30.95;;
13147;SDS011;6639;50.956;4.242;2023-04-09T10:14:21;27.85;;;25.15;;
13147;SDS011;6639;50.956;4.242;2023-04-09T10:16:53;31.65;;;28.42;;
13147;SDS011;6639;50.956;4.242;2023-04-09T10:19:20;31.17;;;28.08;;
13147;SDS011;6639;50.956;4.242;2023-04-09T10:21:49;30.98;;;28.00;;
13147;SDS011;6639;50.956;4.242;2023-04-09T10:24:22;31.38;;;28.42;;
13147;SDS011;6639;50.956;4.242;2023-04-09T10:26:50;27.33;;;24.63;;
13147;SDS011;6639;50.956;4.242;2023-04-09T10:29:26;25.67;;;23.27;;
13147;SDS011;6639;50.956;4.242;2023-04-09T10:32:18;25.38;;;22.83;;
13147;SDS011;6639;50.956;4.242;2023-04-09T10:34:56;27.45;;;24.80;;
13147;SDS011;6639;50.956;4.242;2023-04-09T10:37:43;25.02;;;22.63;;
13147;SDS011;6639;50.956;4.242;2023-04-09T10:40:50;23.88;;;21.42;;
13147;SDS011;6639;50.956;4.242;2023-04-09T10:43:18;24.23;;;21.83;;
13147;SDS011;6639;50.956;4.242;2023-04-09T10:45:46;23.85;;;21.55;;
13147;SDS011;6639;50.956;4.242;2023-04-09T10:48:19;22.15;;;20.15;;
13147;SDS011;6639;50.956;4.242;2023-04-09T10:50:48;21.90;;;19.90;;
13147;SDS011;6639;50.956;4.242;2023-04-09T10:53:20;22.05;;;19.77;;
13147;SDS011;6639;50.956;4.242;2023-04-09T10:55:51;21.55;;;19.52;;
13147;SDS011;6639;50.956;4.242;2023-04-09T10:58:19;21.83;;;19.67;;
13147;SDS011;6639;50.956;4.242;2023-04-09T11:00:46;20.88;;;18.85;;
13147;SDS011;6639;50.956;4.242;2023-04-09T11:03:23;19.08;;;17.25;;
13147;SDS011;6639;50.956;4.242;2023-04-09T11:05:54;19.35;;;17.35;;
13147;SDS011;6639;50.956;4.242;2023-04-09T11:08:29;20.25;;;18.35;;
13147;SDS011;6639;50.956;4.242;2023-04-09T11:10:57;20.70;;;18.70;;
13147;SDS011;6639;50.956;4.242;2023-04-09T11:13:26;20.05;;;18.15;;
13147;SDS011;6639;50.956;4.242;2023-04-09T11:15:54;22.85;;;20.55;;
13147;SDS011;6639;50.956;4.242;2023-04-09T11:18:26;20.58;;;18.65;;
13147;SDS011;6639;50.956;4.242;2023-04-09T11:20:54;18.92;;;17.17;;
13147;SDS011;6639;50.956;4.242;2023-04-09T11:23:22;20.55;;;18.65;;
13147;SDS011;6639;50.956;4.242;2023-04-09T11:25:54;21.58;;;19.35;;
13147;SDS011;6639;50.956;4.242;2023-04-09T11:28:22;20.55;;;18.65;;
13147;SDS011;6639;50.956;4.242;2023-04-09T11:30:49;19.38;;;17.52;;
13147;SDS011;6639;50.956;4.242;2023-04-09T11:33:17;18.25;;;16.63;;
13147;SDS011;6639;50.956;4.242;2023-04-09T11:35:45;19.58;;;17.80;;
13147;SDS011;6639;50.956;4.242;2023-04-09T11:38:13;19.30;;;17.42;;
13147;SDS011;6639;50.956;4.242;2023-04-09T11:40:40;20.77;;;18.88;;
13147;SDS011;6639;50.956;4.242;2023-04-09T11:43:12;21.73;;;19.83;;
13147;SDS011;6639;50.956;4.242;2023-04-09T11:45:40;20.98;;;19.08;;
13147;SDS011;6639;50.956;4.242;2023-04-09T11:48:07;20.20;;;18.30;;
13147;SDS011;6639;50.956;4.242;2023-04-09T11:50:47;19.98;;;18.08;;
13147;SDS011;6639;50.956;4.242;2023-04-09T11:53:15;21.27;;;19.17;;
13147;SDS011;6639;50.956;4.242;2023-04-09T11:55:45;20.27;;;18.48;;
13147;SDS011;6639;50.956;4.242;2023-04-09T11:58:13;18.10;;;16.40;;
13147;SDS011;6639;50.956;4.242;2023-04-09T12:00:40;19.77;;;17.95;;
13147;SDS011;6639;50.956;4.242;2023-04-09T12:03:08;18.77;;;16.98;;
13147;SDS011;6639;50.956;4.242;2023-04-09T12:05:35;17.13;;;15.52;;
13147;SDS011;6639;50.956;4.242;2023-04-09T12:08:06;19.10;;;17.30;;
13147;SDS011;6639;50.956;4.242;2023-04-09T12:10:35;15.10;;;13.75;;
13147;SDS011;6639;50.956;4.242;2023-04-09T12:13:05;15.32;;;13.85;;
13147;SDS011;6639;50.956;4.242;2023-04-09T12:15:33;16.15;;;14.65;;
13147;SDS011;6639;50.956;4.242;2023-04-09T12:18:02;15.43;;;13.88;;
13147;SDS011;6639;50.956;4.242;2023-04-09T12:20:35;15.68;;;14.18;;
13147;SDS011;6639;50.956;4.242;2023-04-09T12:23:05;15.48;;;14.18;;
13147;SDS011;6639;50.956;4.242;2023-04-09T12:25:43;16.88;;;15.18;;
13147;SDS011;6639;50.956;4.242;2023-04-09T12:28:12;16.67;;;15.07;;
13147;SDS011;6639;50.956;4.242;2023-04-09T12:47:40;12.75;;;11.65;;
13147;SDS011;6639;50.956;4.242;2023-04-09T12:50:10;15.10;;;13.60;;
13147;SDS011;6639;50.956;4.242;2023-04-09T12:53:16;15.30;;;13.85;;
13147;SDS011;6639;50.956;4.242;2023-04-09T12:55:43;15.32;;;13.80;;
13147;SDS011;6639;50.956;4.242;2023-04-09T12:58:11;14.95;;;13.65;;
13147;SDS011;6639;50.956;4.242;2023-04-09T13:00:38;15.07;;;13.50;;
13147;SDS011;6639;50.956;4.242;2023-04-09T13:03:06;14.98;;;13.57;;
13147;SDS011;6639;50.956;4.242;2023-04-09T13:05:33;14.93;;;13.27;;
13147;SDS011;6639;50.956;4.242;2023-04-09T13:08:00;13.52;;;12.32;;
13147;SDS011;6639;50.956;4.242;2023-04-09T13:10:27;12.63;;;11.52;;
13147;SDS011;6639;50.956;4.242;2023-04-09T13:12:55;12.80;;;11.60;;
13147;SDS011;6639;50.956;4.242;2023-04-09T13:15:22;13.40;;;12.20;;
13147;SDS011;6639;50.956;4.242;2023-04-09T13:17:50;14.07;;;12.82;;
13147;SDS011;6639;50.956;4.242;2023-04-09T13:20:19;13.95;;;12.60;;
13147;SDS011;6639;50.956;4.242;2023-04-09T13:22:46;12.63;;;11.40;;
13147;SDS011;6639;50.956;4.242;2023-04-09T13:25:21;12.63;;;11.52;;
13147;SDS011;6639;50.956;4.242;2023-04-09T13:30:44;13.77;;;12.38;;
13147;SDS011;6639;50.956;4.242;2023-04-09T13:33:20;12.63;;;11.52;;
13147;SDS011;6639;50.956;4.242;2023-04-09T13:35:57;12.52;;;11.07;;
13147;SDS011;6639;50.956;4.242;2023-04-09T13:38:24;12.80;;;11.30;;
13147;SDS011;6639;50.956;4.242;2023-04-09T13:40:52;13.25;;;12.05;;
13147;SDS011;6639;50.956;4.242;2023-04-09T13:43:28;12.90;;;11.70;;
13147;SDS011;6639;50.956;4.242;2023-04-09T13:46:22;13.50;;;12.20;;
13147;SDS011;6639;50.956;4.242;2023-04-09T13:48:49;12.88;;;11.68;;
13147;SDS011;6639;50.956;4.242;2023-04-09T13:51:18;13.73;;;12.45;;
13147;SDS011;6639;50.956;4.242;2023-04-09T13:53:45;13.57;;;12.27;;
13147;SDS011;6639;50.956;4.242;2023-04-09T13:56:12;13.35;;;12.15;;
13147;SDS011;6639;50.956;4.242;2023-04-09T13:58:39;11.57;;;10.38;;
13147;SDS011;6639;50.956;4.242;2023-04-09T14:01:07;11.02;;;9.93;;
13147;SDS011;6639;50.956;4.242;2023-04-09T14:03:36;13.25;;;12.05;;
13147;SDS011;6639;50.956;4.242;2023-04-09T14:06:19;13.07;;;11.85;;
13147;SDS011;6639;50.956;4.242;2023-04-09T14:09:30;12.18;;;11.07;;
13147;SDS011;6639;50.956;4.242;2023-04-09T14:11:58;13.25;;;12.05;;
13147;SDS011;6639;50.956;4.242;2023-04-09T14:14:26;12.15;;;11.13;;
13147;SDS011;6639;50.956;4.242;2023-04-09T14:16:52;12.05;;;10.93;;
13147;SDS011;6639;50.956;4.242;2023-04-09T14:19:20;9.65;;;8.85;;
13147;SDS011;6639;50.956;4.242;2023-04-09T14:21:46;10.77;;;9.77;;
13147;SDS011;6639;50.956;4.242;2023-04-09T14:24:13;10.85;;;9.85;;
13147;SDS011;6639;50.956;4.242;2023-04-09T14:26:42;12.27;;;11.13;;
13147;SDS011;6639;50.956;4.242;2023-04-09T14:29:12;12.07;;;11.07;;
13147;SDS011;6639;50.956;4.242;2023-04-09T14:31:43;13.75;;;12.50;;
13147;SDS011;6639;50.956;4.242;2023-04-09T14:34:11;13.90;;;12.70;;
13147;SDS011;6639;50.956;4.242;2023-04-09T14:36:39;15.57;;;14.02;;
13147;SDS011;6639;50.956;4.242;2023-04-09T14:39:06;15.32;;;13.90;;
13147;SDS011;6639;50.956;4.242;2023-04-09T14:41:35;15.07;;;13.68;;
13147;SDS011;6639;50.956;4.242;2023-04-09T14:44:04;16.17;;;14.57;;
13147;SDS011;6639;50.956;4.242;2023-04-09T14:46:31;15.40;;;13.90;;
13147;SDS011;6639;50.956;4.242;2023-04-09T14:48:59;17.23;;;14.02;;
13147;SDS011;6639;50.956;4.242;2023-04-09T14:51:26;14.15;;;12.82;;
13147;SDS011;6639;50.956;4.242;2023-04-09T14:53:56;15.43;;;13.82;;
13147;SDS011;6639;50.956;4.242;2023-04-09T14:56:25;16.00;;;14.50;;
13147;SDS011;6639;50.956;4.242;2023-04-09T14:58:52;15.38;;;13.80;;
13147;SDS011;6639;50.956;4.242;2023-04-09T15:01:21;14.75;;;13.25;;
13147;SDS011;6639;50.956;4.242;2023-04-09T15:03:48;14.13;;;12.77;;
13147;SDS011;6639;50.956;4.242;2023-04-09T15:06:15;14.80;;;13.30;;
13147;SDS011;6639;50.956;4.242;2023-04-09T15:08:43;14.60;;;13.10;;
13147;SDS011;6639;50.956;4.242;2023-04-09T15:14:01;15.65;;;14.05;;
13147;SDS011;6639;50.956;4.242;2023-04-09T15:19:22;14.50;;;13.13;;